Terminal Aerodrome Forecast
Issued by NWS

Home | Current Version | Previous Version | Text Only | Print | Product List | Glossary On
Versions: 1 2 3 4 5 6 7 8 9 10 11 12 13 14 15 16 17 18 19 20 21 22 23 24 25
000
FTUS44 KOUN 020525
TAFPNC
TAF
KPNC 020525Z 0206/0306 09014KT P6SM VCTS SCT060CB BKN150
     FM021300 15010KT 5SM BR BKN015
     FM021700 16012KT P6SM SCT040 BKN150=

USA.gov is the U.S. government's official web portal to all federal, state and local government web resources and services.